METAR UND TAF INFORMATION
TBPB 242200Z 10012KT 9999 SCT020 26/21 Q1013 NOSIG

 FLUGHAFENKARTE

 RUNWAY INFORMATION
Runway 09 Runway length 11000 ft Runway width 150 ft
Runway elevation 169 ft Runway displaced threshold 0 ft Runway heading 76
Runway 27 Runway length 11000 ft Runway width 150 ft
Runway elevation 160 ft Runway displaced threshold 0 ft Runway heading 256

 AIRPORT FREQUENCIES
Type APP Name ADAMS APP Frequency 129.35 MHZ
Type ARR Name ADAMS ARR Frequency 128.85 MHZ
Type ATIS Name ATIS Frequency 132.725 MHZ
Type DEP Name ADAMS DEP Frequency 128.85 MHZ
Type GND Name ADAMS GND Frequency 121.9 MHZ
Type TWR Name ADAMS TWR Frequency 118.7 MHZ

 AIRPORT NEAR NAVIGATION AIDS
Type VOR-DME Name Adams Frequency 112700 KHZ
Type NDB Name Adams Frequency 345 KHZ